• Join FlightAware (Why Join?)
  • Login
  • US Flag 
06:47AM EDT


 

Airport Tracker/Info


-or-


 

Live Flight TrackerFlight Track Log ✈ AVN11 ✈ 04-Jan-2014 ✈ YSSY / SYD - NVVV / VLI

Flight Track Log - Related Links

Times and Time Zones

All times are in EST time to prevent confusion due to time zone crossing. See the AVN11 flight status page for this flight to view local times or setup timezone preferences in your user account.

Time Position Orientation Groundspeed Altitude Reporting Facility
EST Latitude Longitude Course Direction KTS MPH feet Rate Location/Type
04:13AM -33.9409 151.1746 40° Northeast 98 113  Level FlightAware ADS-B (YRPA)
04:13AM -33.9718 151.1819 170° South 177 204 900 1,380 Climbing FlightAware ADS-B (YRPA)
04:14AM -33.9782 151.1818 180° South 179 206 1,200 1,860 Climbing FlightAware ADS-B (YRAY)
04:14AM -33.9852 151.1808 187° South 184 212 1,400 1,260 Climbing FlightAware ADS-B (YRPA)
04:14AM -33.9986 151.1786 188° South 197 227 1,700 1,380 Climbing FlightAware ADS-B (YSSY / SYD)
04:14AM -34.0167 151.1765 186° South 210 242 2,200 1,500 Climbing FlightAware ADS-B (YSSY / SYD)
04:15AM -34.0358 151.1783 175° South 228 262 2,700 1,980 Climbing FlightAware ADS-B (YSSY / SYD)
04:15AM -34.0624 151.1869 165° South 232 267 3,700 2,220 Climbing FlightAware ADS-B
04:15AM -34.0693 151.1891 165° South 231 266 3,900 1,200 Climbing FlightAware ADS-B (YRPA)
04:15AM -34.0888 151.1967 162° South 253 291 4,200 1,200 Climbing FlightAware ADS-B
04:15AM -34.0914 151.1985 150° Southeast 262 302 4,300 1,500 Climbing FlightAware ADS-B (YRPA)
04:15AM -34.0928 151.1996 147° Southeast 268 308 4,400 1,500 Climbing FlightAware ADS-B (YSSY / SYD)
04:16AM -34.1028 151.2118 135° Southeast 277 319 4,600 1,500 Climbing FlightAware ADS-B
04:16AM -34.1058 151.2178 121° Southeast 268 308 4,700 1,380 Climbing FlightAware ADS-B
04:16AM -34.1097 151.2299 111° Southeast 293 337 4,900 1,080 Climbing FlightAware ADS-B (YSSY / SYD)
04:16AM -34.1110 151.2423 97° East 304 350 5,000 1,260 Climbing FlightAware ADS-B
04:16AM -34.1101 151.2535 84° East 311 358 5,200 1,380 Climbing FlightAware ADS-B (YRPA)
04:16AM -34.1076 151.2633 73° East 317 365 5,300 1,380 Climbing FlightAware ADS-B (YSSY / SYD)
04:16AM -34.1044 151.2713 64° Northeast 322 371 5,500 1,260 Climbing FlightAware ADS-B
04:16AM -34.0920 151.2954 58° Northeast 332 382 5,700 900 Climbing FlightAware ADS-B (YSSY / SYD)
04:17AM -34.0800 151.3131 51° Northeast 338 389 5,900 1,260 Climbing FlightAware ADS-B (YRPA)
04:17AM -34.0795 151.3138 50° Northeast 349 402 6,100 2,340 Climbing FlightAware ADS-B (YPLB)
04:17AM -34.0556 151.3487 50° Northeast 351 404 6,800 3,240 Climbing FlightAware ADS-B (YRAY)
04:17AM -34.0485 151.3590 50° Northeast 351 404 7,300 2,460 Climbing FlightAware ADS-B (YPLB)
04:17AM -34.0314 151.3842 51° Northeast 352 405 7,800 1,740 Climbing FlightAware ADS-B (YRPA)
04:18AM -34.0123 151.4120 50° Northeast 360 414 8,400 1,860 Climbing FlightAware ADS-B (YRPA)
04:18AM -33.9910 151.4431 50° Northeast 369 425 9,000 1,860 Climbing FlightAware ADS-B
04:18AM -33.9669 151.4783 50° Northeast 380 437 9,700 1,920 Climbing FlightAware ADS-B
04:19AM -33.9190 151.5486 51° Northeast 389 448 11,100 1,920 Climbing FlightAware ADS-B (YRPA)
04:20AM -33.8804 151.6052 51° Northeast 399 459 12,200 2,160 Climbing FlightAware ADS-B (YSSY / SYD)
04:20AM -33.8430 151.6602 51° Northeast 405 466 13,300 2,100 Climbing FlightAware ADS-B (YPLB)
04:21AM -33.8040 151.7171 51° Northeast 410 472 14,500 2,160 Climbing FlightAware ADS-B (YRPA)
04:21AM -33.7701 151.7666 51° Northeast 417 480 15,500 2,340 Climbing FlightAware ADS-B (YPLB)
04:22AM -33.7462 151.8013 50° Northeast 425 489 16,100 1,560 Climbing FlightAware ADS-B (YPLB)
04:22AM -33.7317 151.8224 50° Northeast 436 502 16,900 1,560 Climbing FlightAware ADS-B (YSSY / SYD)
04:23AM -33.6598 151.9269 50° Northeast 446 513 18,000 1,740 Climbing Aus ATC (RADAR)
04:23AM -33.6508 151.9412 50° Northeast 444 511 18,300 1,500 Climbing FlightAware ADS-B (YRPA)
04:23AM -33.5988 152.0187 50° Northeast 448 516 19,200 1,620 Climbing Aus ATC (RADAR)
04:24AM -33.5933 152.0263 50° Northeast 459 528 19,500 2,040 Climbing FlightAware ADS-B (YRPA)
04:24AM -33.5396 152.1054 51° Northeast 465 535 20,700 1,800 Climbing FlightAware ADS-B (YRPA)
04:25AM -33.5054 152.1556 51° Northeast 470 541 21,300 1,380 Climbing FlightAware ADS-B (YPLB)
04:25AM -33.4572 152.2263 51° Northeast 473 544 22,100 1,380 Climbing FlightAware ADS-B (YRPA)
04:26AM -33.4205 152.2801 51° Northeast 482 555 22,700 1,680 Climbing FlightAware ADS-B (YPLB)
04:26AM -33.3930 152.3201 51° Northeast 485 558 23,200 1,380 Climbing FlightAware ADS-B (YPLB)
04:26AM -33.3670 152.3582 51° Northeast 487 560 23,600 1,320 Climbing FlightAware ADS-B (YPLB)
04:27AM -33.3360 152.4034 51° Northeast 491 565 24,100 1,200 Climbing FlightAware ADS-B (YPLB)
04:27AM -33.2843 152.4786 51° Northeast 492 566 24,900 1,140 Climbing FlightAware ADS-B (YRPA)
04:28AM -33.2274 152.5613 51° Northeast 497 572 25,700 1,320 Climbing FlightAware ADS-B (YRPA)
04:28AM -33.1924 152.6120 50° Northeast 504 580 26,200 1,500 Climbing FlightAware ADS-B (YPLB)
04:29AM -33.1596 152.6595 50° Northeast 505 581 26,700 1,260 Climbing FlightAware ADS-B (YPLB)
04:29AM -33.1298 152.7026 50° Northeast 507 583 27,100 1,200 Climbing FlightAware ADS-B (YPLB)
04:29AM -33.1012 152.7440 50° Northeast 507 583 27,500 1,200 Climbing FlightAware ADS-B (YPLB)
04:30AM -33.0717 152.7865 50° Northeast 509 586 27,900 1,200 Climbing FlightAware ADS-B (YPLB)
04:30AM -33.0417 152.8299 50° Northeast 510 587 28,300 1,200 Climbing FlightAware ADS-B (YPLB)
04:30AM -33.0114 152.8735 50° Northeast 512 589 28,700 960 Climbing FlightAware ADS-B (YPLB)
04:31AM -32.9515 152.9597 50° Northeast 511 588 29,400 1,140 Climbing FlightAware ADS-B (YRPA)
04:32AM -32.8862 153.0537 50° Northeast 513 590 30,300 1,260 Climbing FlightAware ADS-B (YPLB)
04:32AM -32.8437 153.1144 50° Northeast 508 585 30,900 960 Climbing FlightAware ADS-B (YRPA)
04:33AM -32.7812 153.2037 50° Northeast 511 588 31,500 840 Climbing FlightAware ADS-B (YRPA)
04:33AM -32.7291 153.2778 50° Northeast 513 590 32,000 900 Climbing FlightAware ADS-B (YRPA)
04:34AM -32.6828 153.3436 50° Northeast 515 593 32,500 900 Climbing FlightAware ADS-B (YRPA)
04:34AM -32.6782 153.3502 50° Northeast 516 594 32,500 600 Level FlightAware ADS-B (YRPA)
04:35AM -32.6209 153.4319 50° Northeast 509 586 32,900 960 Climbing Aus ATC (RADAR)
04:35AM -32.6130 153.4431 50° Northeast 524 603 33,100 1,200 Climbing FlightAware ADS-B (YPLB)
04:35AM -32.6059 153.4532 50° Northeast 516 594 33,100 720 Level FlightAware ADS-B (YRPA)
04:35AM -32.5501 153.5324 50° Northeast 526 605 33,600 780 Climbing FlightAware ADS-B (YPLB)
04:36AM -32.4984 153.6055 50° Northeast 528 608 34,000 840 Climbing FlightAware ADS-B (YRPA)
04:37AM -32.4388 153.6895 50° Northeast 525 604 34,700 720 Climbing FlightAware ADS-B (YRPA)
04:37AM -32.3709 153.7849 50° Northeast 514 592 35,000 180 Climbing FlightAware ADS-B (YRPA)
04:38AM -32.3006 153.8840 50° Northeast 519 597 35,000  Level FlightAware ADS-B (YPLB)
04:39AM -32.2368 153.9733 50° Northeast 518 596 35,000  Level FlightAware ADS-B (YPLB)
04:39AM -32.1841 154.0466 50° Northeast 518 596 35,000  Level FlightAware ADS-B (YPLB)
04:40AM -32.1146 154.1432 50° Northeast 517 595 35,000 -300 Level FlightAware ADS-B (YPLB)
04:40AM -32.1196 154.1369 50° Northeast 517 595 34,800 -360 Descending Aus ATC (RADAR)
04:41AM -32.0658 154.2120 50° Northeast 515 593 34,800 300 Level Aus ATC (RADAR)
04:41AM -32.0949 154.1707 50° Northeast 515 593 35,000 240 Climbing FlightAware ADS-B (YPLB)
04:41AM -32.0092 154.2893 50° Northeast 499 574  Descending Aus ATC (RADAR)
04:41AM -31.9963 154.3074 50° Northeast 512 589 35,000 59,640 Climbing FlightAware ADS-B (YPLB)
04:42AM -31.9557 154.3633 50° Northeast 494 568 34,800  Descending Aus ATC (RADAR)
04:42AM -31.9330 154.3947 50° Northeast 510 587 35,000  Climbing FlightAware ADS-B (YPLB)
04:43AM -31.8795 154.4684 50° Northeast 492 566 34,800  Descending Aus ATC (RADAR)
04:43AM -31.8696 154.4824 50° Northeast 508 585 35,000  Climbing FlightAware ADS-B (YPLB)
04:44AM -31.7878 154.5943 50° Northeast 493 567 34,800  Descending Aus ATC (RADAR)
04:44AM -31.7790 154.6070 50° Northeast 508 585 35,000 300 Climbing FlightAware ADS-B (YPLB)
04:44AM -31.7392 154.6615 49° Northeast 510 587 35,000 -180 Level FlightAware ADS-B (YPLB)
04:45AM -31.6529 154.7805 49° Northeast 509 586 34,800 -180 Descending Aus ATC (RADAR)
04:46AM -31.5994 154.8537 49° Northeast 507 583 34,800  Level Aus ATC (RADAR)
04:46AM -31.5435 154.9290 49° Northeast 492 566 34,800  Level Aus ATC (RADAR)
04:47AM -31.4884 155.0029 49° Northeast 495 570 34,800  Level Aus ATC (RADAR)
04:48AM -31.4150 155.1046 50° Northeast 509 586 34,800  Level Aus ATC (RADAR)
04:48AM -31.3750 155.1590 49° Northeast 488 562 34,800  Level Aus ATC (RADAR)
04:49AM -31.3204 155.2325 49° Northeast 492 566 34,800  Level Aus ATC (RADAR)
04:50AM -31.2344 155.3483 49° Northeast 495 570 34,800  Level Aus ATC (RADAR)
04:50AM -31.2113 155.3793 49° Northeast 495 570 34,800  Level Aus ATC (RADAR)
04:50AM -31.1571 155.4529 49° Northeast 494 568 34,800  Level Aus ATC (RADAR)
04:51AM -31.0946 155.5366 49° Northeast 495 570 34,800  Level Aus ATC (RADAR)
04:52AM -31.0385 155.6102 48° Northeast 497 572 34,800  Level Aus ATC (RADAR)
04:52AM -30.9646 155.7106 49° Northeast 508 585 34,800  Level Aus ATC (RADAR)
04:53AM -30.9267 155.7612 49° Northeast 501 577 34,800  Level Aus ATC (RADAR)
04:53AM -30.8736 155.8316 49° Northeast 497 572 34,800 120 Level Aus ATC (RADAR)
04:54AM -30.8041 155.9241 49° Northeast 471 542 35,000  Climbing Aus ATC (RADAR)
04:55AM -30.7479 155.9992 49° Northeast 480 552 34,800 -180 Descending Aus ATC (RADAR)
04:56AM -30.6748 156.0960 49° Northeast 478 550 34,800  Level Aus ATC (RADAR)
04:56AM -30.6383 156.1442 49° Northeast 478 550 34,800  Level Aus ATC (RADAR)
04:57AM -30.5873 156.2116 49° Northeast 476 548 34,800  Level Aus ATC (RADAR)
04:57AM -30.5206 156.2991 49° Northeast 480 552 34,800  Level Aus ATC (RADAR)
04:58AM -30.4687 156.3672 49° Northeast 482 555 34,800  Level Aus ATC (RADAR)
04:59AM -30.3941 156.4649 49° Northeast 484 557 34,800  Level Aus ATC (RADAR)
04:59AM -30.3568 156.5138 49° Northeast 484 557 34,800  Level Aus ATC (RADAR)
05:00AM -30.2964 156.5929 48° Northeast 489 563 34,800  Level Aus ATC (RADAR)
05:00AM -30.2425 156.6628 48° Northeast 496 571 34,800  Level Aus ATC (RADAR)
05:01AM -30.1886 156.7331 48° Northeast 498 573 34,800  Level Aus ATC (RADAR)
05:02AM -30.1192 156.8230 48° Northeast 498 573 34,800  Level Aus ATC (RADAR)
05:02AM -30.0806 156.8729 48° Northeast 499 574 34,800  Level Aus ATC (RADAR)
05:03AM -30.0265 156.9427 48° Northeast 498 573 34,800  Level Aus ATC (RADAR)
05:04AM -29.9498 157.0421 48° Northeast 496 571 34,800  Level Aus ATC (RADAR)
05:04AM -29.8959 157.1115 48° Northeast 495 570 34,800  Level Aus ATC (RADAR)
05:05AM -29.8038 157.2299 48° Northeast 496 571 34,800  Level Aus ATC (RADAR)
05:06AM -29.7664 157.2787 49° Northeast 491 565 34,800  Level Aus ATC (RADAR)
05:06AM -29.7123 157.3476 48° Northeast 492 566 34,800  Level Aus ATC (RADAR)
05:07AM -29.6362 157.4450 48° Northeast 491 565 34,800  Level Aus ATC (RADAR)
05:08AM -29.5834 157.5129 48° Northeast 488 562 34,800  Level Aus ATC (RADAR)
05:08AM -29.5138 157.6010 48° Northeast 491 565 34,800  Level Aus ATC (RADAR)
05:09AM -29.4752 157.6497 48° Northeast 492 566 34,800  Level Aus ATC (RADAR)
05:09AM -29.4219 157.7175 48° Northeast 491 565 34,800  Level Aus ATC (RADAR)
05:10AM -29.3377 157.8240 48° Northeast 490 564 34,800  Level Aus ATC (RADAR)
05:11AM -29.3003 157.8724 48° Northeast 488 562 34,800  Level Aus ATC (RADAR)
05:11AM -29.2484 157.9390 48° Northeast 484 557 34,800  Level Aus ATC (RADAR)
05:12AM -29.1775 158.0271 47° Northeast 489 563 34,800  Level Aus ATC (RADAR)
05:13AM -29.1220 158.0953 47° Northeast 493 567 34,800  Level Aus ATC (RADAR)
05:13AM -29.0425 158.1916 47° Northeast 496 571 34,800  Level Aus ATC (RADAR)
05:18AM -28.6000 158.7447 47° Northeast 35,000  Climbing Aus ATC (Calculated)
05:19AM -28.5568 158.7983 47° Northeast 35,000  Level Aus ATC (Calculated)
05:21AM -28.3937 159.0000 47° Northeast  Level FlightAware Approximate
05:21AM -28.3300 159.0786 47° Northeast 35,000  Level Aus ATC (Calculated)
05:22AM -28.2270 159.2047 48° Northeast 37,000 1,500 Climbing Aus ATC (Calculated)
05:23AM -28.1875 159.2538 47° Northeast  Level FlightAware Approximate
05:23AM -28.1271 159.3266 227° Southwest 37,000  Level Aus ATC (Calculated)
05:24AM -28.3439 159.0632 227° Southwest  Level FlightAware Approximate
05:25AM -28.2169 159.2173 227° Southwest  Level FlightAware Approximate
05:26AM -28.3011 159.1146 227° Southwest  Level FlightAware Approximate
05:26AM -27.8848 159.6210 227° Southwest 37,000  Level Aus ATC (Calculated)
05:27AM -28.2169 159.2173 47° Northeast  Level FlightAware Approximate
05:27AM -27.7953 159.7292 40° Northeast 37,000  Level Aus ATC (Calculated)
05:29AM -27.6562 159.8603 47° Northeast  Level Estimated
05:30AM -27.5721 159.9625 47° Northeast  Level FlightAware Approximate
05:31AM -27.4880 160.0645 47° Northeast  Level FlightAware Approximate
05:32AM -27.4038 160.1663 47° Northeast  Level FlightAware Approximate
05:32AM -27.3605 160.2508 47° Northeast 37,000  Level Aus ATC (Calculated)
05:34AM -27.2346 160.4007 47° Northeast  Level FlightAware Approximate
05:35AM -27.1496 160.5015 47° Northeast  Level FlightAware Approximate
05:35AM -27.1396 160.5134 47° Northeast 37,000  Level Aus ATC (Calculated)
05:35AM -27.0728 160.5925 46° Northeast 37,000  Level Aus ATC (Calculated)
05:37AM -26.9706 160.7131 46° Northeast  Level FlightAware Approximate
05:37AM -26.8783 160.8218 226° Southwest 37,000  Level Aus ATC (Calculated)
05:38AM -26.8855 160.8134 46° Northeast  Level FlightAware Approximate
05:38AM -26.8783 160.8218 46° Northeast 37,000  Level Aus ATC (Calculated)
05:39AM -26.7018 161.0290 226° Southwest 37,000  Level Aus ATC (Calculated)
05:40AM -26.7163 161.0121 46° Northeast  Level FlightAware Approximate
05:41AM -26.5993 161.1488 46° Northeast  Level FlightAware Approximate
05:42AM -26.5138 161.2485 46° Northeast  Level FlightAware Approximate
05:42AM -26.4880 161.2785 46° Northeast 37,000  Level Aus ATC (Calculated)
05:43AM -26.4025 161.3780 46° Northeast  Level FlightAware Approximate
05:44AM -26.3168 161.4774 46° Northeast  Level FlightAware Approximate
05:44AM -26.3006 161.4961 46° Northeast 37,000  Level Aus ATC (Calculated)
05:45AM -26.2149 161.5953 46° Northeast  Level FlightAware Approximate
05:46AM -26.1291 161.6943 46° Northeast  Level FlightAware Approximate
05:47AM -26.0433 161.7932 46° Northeast  Level FlightAware Approximate
05:48AM -25.9573 161.8919 46° Northeast  Level FlightAware Approximate
05:49AM -25.8713 161.9905 46° Northeast  Level FlightAware Approximate
05:50AM -25.7853 162.0890 46° Northeast  Level FlightAware Approximate
05:51AM -25.6991 162.1873 46° Northeast  Level FlightAware Approximate
05:52AM -25.6129 162.2855 46° Northeast  Level FlightAware Approximate
05:53AM -25.5267 162.3835 46° Northeast  Level FlightAware Approximate
05:54AM -25.4403 162.4814 46° Northeast  Level FlightAware Approximate
05:54AM -25.3529 162.5803 46° Northeast 37,000  Level Aus ATC (Calculated)
05:55AM -25.2665 162.6779 46° Northeast  Level FlightAware Approximate
05:56AM -25.1799 162.7754 46° Northeast  Level FlightAware Approximate
05:57AM -25.0933 162.8727 46° Northeast  Level FlightAware Approximate
05:58AM -25.0067 162.9699 45° Northeast  Level FlightAware Approximate
05:59AM -24.9200 163.0670 45° Northeast  Level FlightAware Approximate
06:00AM -25.0067 162.9699 225° Southwest  Level FlightAware Approximate
06:01AM -24.9200 163.0670 45° Northeast  Level FlightAware Approximate
06:02AM -25.0067 162.9699 225° Southwest  Level FlightAware Approximate
06:03AM -24.9200 163.0670 45° Northeast  Level FlightAware Approximate
06:04AM -25.0067 162.9699 225° Southwest  Level FlightAware Approximate
06:05AM -24.9200 163.0670 45° Northeast  Level FlightAware Approximate
06:06AM -25.0067 162.9699 225° Southwest  Level FlightAware Approximate
06:07AM -24.9200 163.0670 45° Northeast  Level FlightAware Approximate
06:08AM -25.0067 162.9699 225° Southwest  Level FlightAware Approximate
06:09AM -24.9305 163.0551 45° Northeast  Level FlightAware Approximate
06:10AM -24.8437 163.1519 45° Northeast  Level FlightAware Approximate
06:11AM -24.7568 163.2487 45° Northeast  Level FlightAware Approximate
06:12AM -24.6698 163.3452 45° Northeast  Level FlightAware Approximate
06:13AM -24.5828 163.4417 45° Northeast  Level FlightAware Approximate
06:14AM -24.4957 163.5380 45° Northeast  Level FlightAware Approximate
06:15AM -24.4086 163.6342 45° Northeast  Level FlightAware Approximate
06:16AM -24.3213 163.7302 45° Northeast  Level FlightAware Approximate
06:17AM -24.2341 163.8261 45° Northeast  Level FlightAware Approximate
06:18AM -24.1467 163.9219 45° Northeast  Level FlightAware Approximate
06:19AM -24.0593 164.0175 45° Northeast  Level FlightAware Approximate
06:20AM -23.9719 164.1131 45° Northeast  Level FlightAware Approximate
06:21AM -23.8844 164.2085 45° Northeast  Level FlightAware Approximate
06:22AM -23.7968 164.3037 45° Northeast  Level FlightAware Approximate
06:23AM -23.7092 164.3988 45° Northeast  Level FlightAware Approximate
06:24AM -23.6215 164.4938 45° Northeast  Level FlightAware Approximate
06:25AM -23.5338 164.5887 45° Northeast  Level FlightAware Approximate
06:26AM -23.4459 164.6835 45° Northeast  Level FlightAware Approximate
06:27AM -23.3581 164.7781 45° Northeast  Level FlightAware Approximate
06:28AM -23.2701 164.8725 45° Northeast  Level FlightAware Approximate
06:29AM -23.1821 164.9669 45° Northeast  Level FlightAware Approximate
06:30AM -23.0941 165.0611 45° Northeast  Level FlightAware Approximate
06:31AM -23.0060 165.1552 45° Northeast  Level FlightAware Approximate
06:32AM -22.9178 165.2492 44° Northeast  Level FlightAware Approximate
06:33AM -22.8296 165.3431 44° Northeast  Level FlightAware Approximate
06:34AM -22.7413 165.4368 44° Northeast  Level FlightAware Approximate
06:35AM -22.6530 165.5304 44° Northeast  Level FlightAware Approximate
06:36AM -22.5646 165.6239 44° Northeast  Level FlightAware Approximate
06:37AM -22.4762 165.7173 44° Northeast  Level FlightAware Approximate
06:38AM -22.3877 165.8105 44° Northeast  Level FlightAware Approximate
06:39AM -22.2992 165.9037 44° Northeast  Level FlightAware Approximate
06:40AM -22.2106 165.9967 44° Northeast  Level FlightAware Approximate
06:41AM -22.1219 166.0896 44° Northeast  Level FlightAware Approximate
06:42AM -22.0332 166.1824 44° Northeast  Level FlightAware Approximate
06:43AM -21.9280 166.2488 24° Northeast  Level FlightAware Approximate
06:44AM -21.8152 166.3029 24° Northeast  Level FlightAware Approximate
06:45AM -21.7023 166.3569 24° Northeast  Level FlightAware Approximate
06:46AM -21.5894 166.4109 24° Northeast  Level FlightAware Approximate
06:47AM -21.4765 166.4648 24° Northeast  Level FlightAware Approximate
06:48AM -21.3636 166.5185 24° Northeast  Level FlightAware Approximate
06:49AM -21.2506 166.5722 24° Northeast  Level FlightAware Approximate
06:50AM -21.1376 166.6258 24° Northeast  Level FlightAware Approximate
06:51AM -21.0247 166.6794 24° Northeast  Level FlightAware Approximate
06:52AM -20.9116 166.7328 24° Northeast  Level FlightAware Approximate
06:53AM -20.7986 166.7862 24° Northeast  Level FlightAware Approximate
06:54AM -20.6856 166.8395 24° Northeast  Level FlightAware Approximate
06:55AM -20.5725 166.8927 24° Northeast  Level FlightAware Approximate
06:56AM -20.4595 166.9458 24° Northeast  Level FlightAware Approximate
06:57AM -20.3464 166.9989 24° Northeast  Level FlightAware Approximate
06:58AM -20.2333 167.0519 24° Northeast  Level FlightAware Approximate
06:59AM -20.1202 167.1048 24° Northeast  Level FlightAware Approximate
07:00AM -20.0071 167.1576 24° Northeast  Level FlightAware Approximate
07:01AM -19.8939 167.2103 24° Northeast  Level FlightAware Approximate
07:02AM -19.7808 167.2630 24° Northeast  Level FlightAware Approximate
07:03AM -19.6676 167.3156 24° Northeast  Level FlightAware Approximate
07:04AM -19.5544 167.3681 24° Northeast  Level FlightAware Approximate
07:05AM -19.4412 167.4208 24° Northeast  Level FlightAware Approximate
07:06AM -19.3282 167.4735 24° Northeast  Level FlightAware Approximate
07:07AM -19.2151 167.5262 24° Northeast  Level FlightAware Approximate
07:08AM -19.1020 167.5788 24° Northeast  Level FlightAware Approximate
07:09AM -18.9889 167.6313 24° Northeast  Level FlightAware Approximate
07:10AM -18.8757 167.6838 24° Northeast  Level FlightAware Approximate
07:11AM -18.7626 167.7361 24° Northeast  Level FlightAware Approximate
07:12AM -18.6494 167.7885 24° Northeast  Level FlightAware Approximate
07:13AM -18.5363 167.8407 24° Northeast  Level FlightAware Approximate
07:14AM -18.4232 167.8931 24° Northeast  Level FlightAware Approximate
07:15AM -18.3101 167.9455 24° Northeast  Level FlightAware Approximate
07:16AM -18.1970 167.9978 24° Northeast  Level FlightAware Approximate
07:17AM -18.0838 168.0500 24° Northeast  Level FlightAware Approximate
07:18AM -17.9707 168.1021 24° Northeast  Level FlightAware Approximate
07:19AM -17.8575 168.1542 24° Northeast  Level FlightAware Approximate
07:20AM -17.7444 168.2062 24° Northeast  Level FlightAware Approximate
07:21AM -17.6621 168.2439 24° Northeast  Level FlightAware Approximate
07:22AM -17.6993 168.3198 24° Northeast  Level Estimated
07:23AM -17.6993 168.3198 24° Northeast  Level Estimated
07:24AM -17.6993 168.3198 24° Northeast  Level Estimated
07:25AM -17.6993 168.3198 24° Northeast  Level Estimated
07:26AM -17.6993 168.3198 24° Northeast  Level Estimated
07:27AM -17.6993 168.3198 24° Northeast  Level Estimated
07:28AM -17.6993 168.3198 24° Northeast  Level Estimated
07:29AM -17.6993 168.3198 24° Northeast  Level Estimated